Observation data for Guthrie on 01/19/2019      Previous  Date  Next       Current Mesonet Observations  Soil Data  Daily Summary Page  Observations in Plain Language
KPFS 190600Z 34024G36KT 04/M03 A2997 RMK A01 T00421027  RH  061%=      5-min Rain = 0
KPFS 190605Z 34024G33KT 04/M03 A2997 RMK A01 T00421027  RH  061%=      5-min Rain = 0
KPFS 190610Z 34023G32KT 04/M03 A2998 RMK A01 T00421027  RH  061%=      5-min Rain = 0
KPFS 190615Z 33025G35KT 04/M03 A2998 RMK A01 T00411027  RH  062%=      5-min Rain = 0
KPFS 190620Z 33024G34KT 04/M03 A2999 RMK A01 T00381026  RH  063%=      5-min Rain = 0
KPFS 190625Z 34024G35KT 04/M02 A2999 RMK A01 T00361024  RH  066%=      5-min Rain = 0
KPFS 190630Z 34024G32KT 03/M02 A30 RMK A01 T00331021  RH  068%=      5-min Rain = 0
KPFS 190635Z 34020G32KT 03/M02 A3001 RMK A01 T00301018  RH  071%=      5-min Rain = 0
KPFS 190640Z 33023G29KT 03/M02 A3001 RMK A01 T00271017  RH  073%=      5-min Rain = 0
KPFS 190645Z 33019G27KT 03/M02 A3002 RMK A01 T00261016  RH  074%=      5-min Rain = 0
KPFS 190650Z 34019G27KT 03/M02 A3002 RMK A01 T00251015  RH  075%=      5-min Rain = 0
KPFS 190655Z 34018G24KT 03/M01 A3002 RMK A01 T00251014  RH  076%=      5-min Rain = 0
KPFS 190700Z 33018G27KT 02/M01 A3002 RMK A01 T00231014  RH  077%=      5-min Rain = 0
KPFS 190705Z 34022G27KT 02/M01 A3003 RMK A01 T00211014  RH  078%=      5-min Rain = 0
KPFS 190710Z 34020G29KT 02/M01 A3003 RMK A01 T00211013  RH  079%=      5-min Rain = 0
KPFS 190715Z 34019G27KT 02/M01 A3003 RMK A01 T00201013  RH  080%=      5-min Rain = 0
KPFS 190720Z 34017G25KT 02/M01 A3004 RMK A01 T00171012  RH  082%=      5-min Rain = 0
KPFS 190725Z 33017G24KT 01/M01 A3004 RMK A01 T00131010  RH  085%=      5-min Rain = 0
KPFS 190730Z 34019G27KT 01/M01 A3004 RMK A01 T00131008  RH  087%=      5-min Rain = 0
KPFS 190735Z 34018G26KT 01/M01 A3004 RMK A01 T00131008  RH  087%=      5-min Rain = 0
KPFS 190740Z 34017G23KT 01/M01 A3004 RMK A01 T00121007  RH  088%=      5-min Rain = 0
KPFS 190745Z 34018G24KT 01/M01 A3004 RMK A01 T00121006  RH  089%=      5-min Rain = 0
KPFS 190750Z 34017G28KT 01/M01 A3004 RMK A01 T00131006  RH  088%=      5-min Rain = 0
KPFS 190755Z 33019G27KT 01/M01 A3004 RMK A01 T00131006  RH  088%=      5-min Rain = 0
KPFS 190800Z 33020G26KT 01/M01 A3004 RMK A01 T00131006  RH  088%=      5-min Rain = 0
KPFS 190805Z 33021G27KT 01/M01 A3005 RMK A01 T00141007  RH  087%=      5-min Rain = 0
KPFS 190810Z 34019G26KT 02/M01 A3005 RMK A01 T00151007  RH  086%=      5-min Rain = 0
KPFS 190815Z 34019G26KT 02/M01 A3005 RMK A01 T00151007  RH  086%=      5-min Rain = 0
KPFS 190820Z 34018G24KT 02/M01 A3005 RMK A01 T00151007  RH  086%=      5-min Rain = 0
KPFS 190825Z 34019G24KT 02/M01 A3005 RMK A01 T00151007  RH  086%=      5-min Rain = 0
KPFS 190830Z 34017KT 02/M01 A3005 RMK A01 T00151007  RH  086%=      5-min Rain = 0
KPFS 190835Z 34016KT 02/M01 A3005 RMK A01 T00151007  RH  086%=      5-min Rain = 0
KPFS 190840Z 34016KT 02/M01 A3005 RMK A01 T00161007  RH  086%=      5-min Rain = 0
KPFS 190845Z 33015KT 02/M01 A3006 RMK A01 T00181007  RH  084%=      5-min Rain = 0
KPFS 190850Z 33016G23KT 02/M01 A3006 RMK A01 T00201009  RH  082%=      5-min Rain = 0
KPFS 190855Z 34014G19KT 02/M01 A3006 RMK A01 T00211010  RH  081%=      5-min Rain = 0
KPFS 190900Z 34015KT 02/M01 A3006 RMK A01 T00231012  RH  079%=      5-min Rain = 0
KPFS 190905Z 33016G23KT 02/M01 A3007 RMK A01 T00241014  RH  077%=      5-min Rain = 0
KPFS 190910Z 34016G22KT 03/M02 A3007 RMK A01 T00251015  RH  076%=      5-min Rain = 0
KPFS 190915Z 34016G22KT 03/M02 A3007 RMK A01 T00251016  RH  075%=      5-min Rain = 0
KPFS 190920Z 34017G22KT 03/M02 A3007 RMK A01 T00251016  RH  075%=      5-min Rain = 0
KPFS 190925Z 34016G22KT 03/M02 A3007 RMK A01 T00251016  RH  075%=      5-min Rain = 0
KPFS 190930Z 34015G22KT 03/M02 A3008 RMK A01 T00251016  RH  075%=      5-min Rain = 0
KPFS 190935Z 34016G22KT 03/M02 A3008 RMK A01 T00261016  RH  075%=      5-min Rain = 0
KPFS 190940Z 34017KT 03/M02 A3009 RMK A01 T00271016  RH  074%=      5-min Rain = 0
KPFS 190945Z 34015G20KT 03/M02 A3009 RMK A01 T00271015  RH  074%=      5-min Rain = 0
KPFS 190950Z 33016G22KT 03/M02 A3009 RMK A01 T00281015  RH  074%=      5-min Rain = 0
KPFS 190955Z 32018G29KT 03/M02 A301 RMK A01 T00281016  RH  073%=      5-min Rain = 0
KPFS 191000Z 34021G28KT 03/M03 A301 RMK A01 T00281025  RH  069%=      5-min Rain = 0
KPFS 191005Z 34024G32KT 03/M03 A301 RMK A01 T00261032  RH  066%=      5-min Rain = 0
KPFS 191010Z 34023G34KT 03/M04 A301 RMK A01 T00251036  RH  065%=      5-min Rain = 0
KPFS 191015Z 34021G27KT 02/M04 A3011 RMK A01 T00231037  RH  065%=      5-min Rain = 0
KPFS 191020Z 34023G31KT 02/M04 A3011 RMK A01 T00211038  RH  065%=      5-min Rain = 0
KPFS 191025Z 33021G31KT 02/M04 A3011 RMK A01 T00201040  RH  065%=      5-min Rain = 0
KPFS 191030Z 34022G31KT 02/M04 A3011 RMK A01 T00191040  RH  065%=      5-min Rain = 0
KPFS 191035Z 34019G27KT 02/M04 A3012 RMK A01 T00171041  RH  066%=      5-min Rain = 0
KPFS 191040Z 34019G27KT 02/M04 A3012 RMK A01 T00151040  RH  067%=      5-min Rain = 0
KPFS 191045Z 34020G27KT 01/M04 A3012 RMK A01 T00141042  RH  066%=      5-min Rain = 0
KPFS 191050Z 34021G30KT 01/M04 A3013 RMK A01 T00141044  RH  066%=      5-min Rain = 0
KPFS 191055Z 34020G27KT 01/M05 A3013 RMK A01 T00131045  RH  066%=      5-min Rain = 0
KPFS 191100Z 34017G24KT 01/M05 A3013 RMK A01 T00111045  RH  066%=      5-min Rain = 0
KPFS 191105Z 34016G23KT 01/M04 A3014 RMK A01 T00101044  RH  067%=      5-min Rain = 0
KPFS 191110Z 34016G22KT 01/M04 A3014 RMK A01 T00081044  RH  069%=      5-min Rain = 0
KPFS 191115Z 34020G25KT 01/M04 A3014 RMK A01 T00091043  RH  068%=      5-min Rain = 0
KPFS 191120Z 34018G24KT 01/M04 A3014 RMK A01 T00091044  RH  068%=      5-min Rain = 0
KPFS 191125Z 34017G24KT 01/M05 A3014 RMK A01 T00091045  RH  068%=      5-min Rain = 0
KPFS 191130Z 33015G22KT 01/M05 A3015 RMK A01 T00081045  RH  068%=      5-min Rain = 0
KPFS 191135Z 33014G19KT 01/M04 A3016 RMK A01 T00071044  RH  069%=      5-min Rain = 0
KPFS 191140Z 33017G22KT 01/M04 A3016 RMK A01 T00071044  RH  069%=      5-min Rain = 0
KPFS 191145Z 32019G26KT 01/M05 A3016 RMK A01 T00071047  RH  068%=      5-min Rain = 0
KPFS 191150Z 33017G22KT 01/M05 A3017 RMK A01 T00061048  RH  067%=      5-min Rain = 0
KPFS 191155Z 33021G28KT 01/M05 A3017 RMK A01 T00061050  RH  066%=      5-min Rain = 0
KPFS 191200Z 33019G26KT 01/M05 A3017 RMK A01 T00051053  RH  065%=      5-min Rain = 0
KPFS 191205Z 33020G29KT 01/M06 A3018 RMK A01 T00051055  RH  064%=      5-min Rain = 0
KPFS 191210Z 33017G22KT 00/M06 A3018 RMK A01 T00041056  RH  064%=      5-min Rain = 0
KPFS 191215Z 33015G22KT 00/M06 A3019 RMK A01 T00021055  RH  065%=      5-min Rain = 0
KPFS 191220Z 33014KT 00/M05 A3019 RMK A01 T00011054  RH  067%=      5-min Rain = 0
KPFS 191225Z 33013G18KT 00/05 A3019 RMK A01 T00-00-53  RH  068%=      5-min Rain = 0
KPFS 191230Z 33015KT 00/05 A3019 RMK A01 T00-00-53  RH  068%=      5-min Rain = 0
KPFS 191235Z 33014G19KT 00/M05 A302 RMK A01 T00011054  RH  067%=      5-min Rain = 0
KPFS 191240Z 33012KT M00/M06 A302 RMK A01 T10011055  RH  067%=      5-min Rain = 0
KPFS 191245Z 33013G18KT M00/M05 A302 RMK A01 T10011054  RH  067%=      5-min Rain = 0
KPFS 191250Z 33014G19KT M00/M06 A302 RMK A01 T10011055  RH  067%=      5-min Rain = 0
KPFS 191255Z 33014G22KT M00/M06 A302 RMK A01 T10021055  RH  068%=      5-min Rain = 0
KPFS 191300Z 33015G20KT M00/M06 A302 RMK A01 T10021055  RH  068%=      5-min Rain = 0
KPFS 191305Z 33014G20KT M00/M06 A302 RMK A01 T10011055  RH  067%=      5-min Rain = 0
KPFS 191310Z 33013KT M00/M05 A302 RMK A01 T10021054  RH  068%=      5-min Rain = 0
KPFS 191315Z 33012G18KT M00/M05 A302 RMK A01 T10021054  RH  068%=      5-min Rain = 0
KPFS 191320Z 33012KT M00/M05 A3021 RMK A01 T10031054  RH  069%=      5-min Rain = 0
KPFS 191325Z 33011KT M00/M05 A3021 RMK A01 T10031053  RH  069%=      5-min Rain = 0
KPFS 191330Z 33010G15KT M00/M05 A3021 RMK A01 T10041053  RH  070%=      5-min Rain = 0
KPFS 191335Z 33010KT M01/M05 A3021 RMK A01 T10051053  RH  071%=      5-min Rain = 0
KPFS 191340Z 34010KT M01/M05 A3021 RMK A01 T10061053  RH  071%=      5-min Rain = 0
KPFS 191345Z 34009KT M01/M05 A3022 RMK A01 T10071052  RH  072%=      5-min Rain = 0
KPFS 191350Z 34009KT M01/M05 A3022 RMK A01 T10071052  RH  072%=      5-min Rain = 0
KPFS 191355Z 33009KT M01/M05 A3022 RMK A01 T10081052  RH  073%=      5-min Rain = 0
KPFS 191400Z 33009KT M01/M05 A3023 RMK A01 T10091051  RH  073%=      5-min Rain = 0
KPFS 191405Z 32010KT M01/M05 A3023 RMK A01 T10091051  RH  074%=      5-min Rain = 0
KPFS 191410Z 32012KT M01/M05 A3023 RMK A01 T10061049  RH  073%=      5-min Rain = 0
KPFS 191415Z 33013KT M00/M05 A3023 RMK A01 T10021048  RH  071%=      5-min Rain = 0
KPFS 191420Z 33015KT 00/M05 A3024 RMK A01 T00011047  RH  070%=      5-min Rain = 0
KPFS 191425Z 33015G21KT 00/M05 A3024 RMK A01 T00021047  RH  070%=      5-min Rain = 0
KPFS 191430Z 33016G24KT 01/M05 A3024 RMK A01 T00051046  RH  069%=      5-min Rain = 0
KPFS 191435Z 33018G25KT 01/M05 A3024 RMK A01 T00071047  RH  067%=      5-min Rain = 0
KPFS 191440Z 33017G25KT 01/M05 A3024 RMK A01 T00091046  RH  067%=      5-min Rain = 0
KPFS 191445Z 34019G26KT 01/M05 A3025 RMK A01 T00101046  RH  066%=      5-min Rain = 0
KPFS 191450Z 33019G25KT 01/M05 A3025 RMK A01 T00111047  RH  065%=      5-min Rain = 0
KPFS 191455Z 33019G24KT 01/M05 A3026 RMK A01 T00131046  RH  065%=      5-min Rain = 0
KPFS 191500Z 33017G24KT 02/M05 A3026 RMK A01 T00151045  RH  064%=      5-min Rain = 0
KPFS 191505Z 33017G22KT 02/M05 A3027 RMK A01 T00161045  RH  064%=      5-min Rain = 0
KPFS 191510Z 33019G27KT 02/M05 A3027 RMK A01 T00171046  RH  063%=      5-min Rain = 0
KPFS 191515Z 33020G26KT 02/M05 A3027 RMK A01 T00181046  RH  063%=      5-min Rain = 0
KPFS 191520Z 33019G27KT 02/M05 A3028 RMK A01 T00191047  RH  062%=      5-min Rain = 0
KPFS 191525Z 33019G26KT 02/M05 A3028 RMK A01 T00201047  RH  061%=      5-min Rain = 0
KPFS 191530Z 33020G28KT 02/M05 A3029 RMK A01 T00211049  RH  060%=      5-min Rain = 0
KPFS 191535Z 34019G26KT 02/M05 A3029 RMK A01 T00221050  RH  059%=      5-min Rain = 0
KPFS 191540Z 33019G26KT 02/M05 A3029 RMK A01 T00241050  RH  058%=      5-min Rain = 0
KPFS 191545Z 33019G29KT 02/M05 A303 RMK A01 T00241050  RH  058%=      5-min Rain = 0
KPFS 191550Z 34020G27KT 03/M05 A303 RMK A01 T00251050  RH  058%=      5-min Rain = 0
KPFS 191555Z 34017G26KT 03/M05 A303 RMK A01 T00271048  RH  058%=      5-min Rain = 0
KPFS 191600Z 34018G24KT 03/M05 A303 RMK A01 T00301047  RH  057%=      5-min Rain = 0
KPFS 191605Z 34022G31KT 03/M05 A303 RMK A01 T00291052  RH  056%=      5-min Rain = 0
KPFS 191610Z 34021G28KT 03/M05 A3031 RMK A01 T00301051  RH  055%=      5-min Rain = 0
KPFS 191615Z 34021G26KT 03/M05 A3031 RMK A01 T00311052  RH  054%=      5-min Rain = 0
KPFS 191620Z 33018G27KT 04/M05 A3031 RMK A01 T00351050  RH  054%=      5-min Rain = 0
KPFS 191625Z 34022G31KT 03/M05 A3031 RMK A01 T00331054  RH  053%=      5-min Rain = 0
KPFS 191630Z 34019G27KT 04/M05 A3031 RMK A01 T00351052  RH  053%=      5-min Rain = 0
KPFS 191635Z 34018G27KT 04/M05 A3031 RMK A01 T00381051  RH  052%=      5-min Rain = 0
KPFS 191640Z 34023G30KT 04/M05 A3031 RMK A01 T00371054  RH  051%=      5-min Rain = 0
KPFS 191645Z 34022G32KT 04/M06 A3031 RMK A01 T00361055  RH  051%=      5-min Rain = 0
KPFS 191650Z 35022G32KT 04/M06 A3031 RMK A01 T00381056  RH  050%=      5-min Rain = 0
KPFS 191655Z 35023G33KT 04/M06 A3031 RMK A01 T00381057  RH  050%=      5-min Rain = 0
KPFS 191700Z 34019G26KT 04/M06 A3031 RMK A01 T00411055  RH  050%=      5-min Rain = 0
KPFS 191705Z 35022G28KT 04/M06 A3031 RMK A01 T00411057  RH  049%=      5-min Rain = 0
KPFS 191710Z 35021G30KT 05/M05 A3031 RMK A01 T00451054  RH  049%=      5-min Rain = 0
KPFS 191715Z 35022G29KT 04/M06 A3031 RMK A01 T00431055  RH  049%=      5-min Rain = 0
KPFS 191720Z 34020G27KT 04/M05 A3031 RMK A01 T00441053  RH  049%=      5-min Rain = 0
KPFS 191725Z 34022G30KT 05/M05 A3031 RMK A01 T00461052  RH  049%=      5-min Rain = 0
KPFS 191730Z 33022G30KT 05/M05 A3031 RMK A01 T00461054  RH  049%=      5-min Rain = 0
KPFS 191735Z 34021G29KT 05/M05 A3031 RMK A01 T00471053  RH  048%=      5-min Rain = 0
KPFS 191740Z 34018G25KT 05/M05 A3031 RMK A01 T00501051  RH  048%=      5-min Rain = 0
KPFS 191745Z 33021G31KT 05/M05 A3031 RMK A01 T00521048  RH  048%=      5-min Rain = 0
KPFS 191750Z 34021G32KT 05/M05 A3031 RMK A01 T00521047  RH  049%=      5-min Rain = 0
KPFS 191755Z 34019G25KT 06/M05 A3031 RMK A01 T00551045  RH  049%=      5-min Rain = 0
KPFS 191800Z 34019G26KT 06/M04 A3031 RMK A01 T00601044  RH  048%=      5-min Rain = 0
KPFS 191805Z 34023G29KT 06/M05 A3031 RMK A01 T00571050  RH  046%=      5-min Rain = 0
KPFS 191810Z 35022G31KT 06/M05 A3031 RMK A01 T00571048  RH  047%=      5-min Rain = 0
KPFS 191815Z 35018G27KT 06/M05 A303 RMK A01 T00601046  RH  046%=      5-min Rain = 0
KPFS 191820Z 34021G27KT 06/M05 A303 RMK A01 T00591047  RH  046%=      5-min Rain = 0
KPFS 191825Z 33017G26KT 06/M05 A303 RMK A01 T00611046  RH  047%=      5-min Rain = 0
KPFS 191830Z 33018G25KT 06/M05 A303 RMK A01 T00611046  RH  046%=      5-min Rain = 0
KPFS 191835Z 32018G25KT 06/M05 A303 RMK A01 T00611046  RH  046%=      5-min Rain = 0
KPFS 191840Z 33017G26KT 06/M05 A303 RMK A01 T00621046  RH  046%=      5-min Rain = 0
KPFS 191845Z 34017G23KT 06/M05 A303 RMK A01 T00621046  RH  046%=      5-min Rain = 0
KPFS 191850Z 33018G25KT 07/M05 A303 RMK A01 T00651046  RH  045%=      5-min Rain = 0
KPFS 191855Z 34016G24KT 07/M04 A303 RMK A01 T00681044  RH  045%=      5-min Rain = 0
KPFS 191900Z 34017G26KT 07/M04 A303 RMK A01 T00691044  RH  044%=      5-min Rain = 0
KPFS 191905Z 33018G25KT 07/M05 A3029 RMK A01 T00671045  RH  045%=      5-min Rain = 0
KPFS 191910Z 33017G25KT 07/M05 A3029 RMK A01 T00691045  RH  044%=      5-min Rain = 0
KPFS 191915Z 33017G25KT 07/M04 A3029 RMK A01 T00691044  RH  044%=      5-min Rain = 0
KPFS 191920Z 33018G23KT 07/M05 A3028 RMK A01 T00701045  RH  044%=      5-min Rain = 0
KPFS 191925Z 33019G26KT 07/M05 A3028 RMK A01 T00701046  RH  043%=      5-min Rain = 0
KPFS 191930Z 34020G27KT 07/M05 A3027 RMK A01 T00711045  RH  044%=      5-min Rain = 0
KPFS 191935Z 35018G26KT 07/M04 A3027 RMK A01 T00741043  RH  043%=      5-min Rain = 0
KPFS 191940Z 34017G22KT 07/M05 A3027 RMK A01 T00741045  RH  043%=      5-min Rain = 0
KPFS 191945Z 33018G26KT 07/M04 A3027 RMK A01 T00741044  RH  043%=      5-min Rain = 0
KPFS 191950Z 34016G24KT 08/M04 A3027 RMK A01 T00751044  RH  043%=      5-min Rain = 0
KPFS 191955Z 33020G27KT 08/M05 A3027 RMK A01 T00751046  RH  042%=      5-min Rain = 0
KPFS 192000Z 34017G24KT 08/M04 A3027 RMK A01 T00781044  RH  042%=      5-min Rain = 0
KPFS 192005Z 33018G26KT 08/M05 A3026 RMK A01 T00781046  RH  041%=      5-min Rain = 0
KPFS 192010Z 33018G25KT 08/M05 A3026 RMK A01 T00781046  RH  041%=      5-min Rain = 0
KPFS 192015Z 33019G24KT 08/M05 A3026 RMK A01 T00811047  RH  040%=      5-min Rain = 0
KPFS 192020Z 32020G26KT 08/M05 A3026 RMK A01 T00811046  RH  040%=      5-min Rain = 0
KPFS 192025Z 33016G23KT 08/M05 A3025 RMK A01 T00801045  RH  041%=      5-min Rain = 0
KPFS 192030Z 33015G20KT 09/M04 A3026 RMK A01 T00861044  RH  040%=      5-min Rain = 0
KPFS 192035Z 33018G24KT 08/M05 A3026 RMK A01 T00821046  RH  040%=      5-min Rain = 0
KPFS 192040Z 33017G26KT 09/M05 A3026 RMK A01 T00851046  RH  040%=      5-min Rain = 0
KPFS 192045Z 34018G24KT 09/M05 A3026 RMK A01 T00851047  RH  039%=      5-min Rain = 0
KPFS 192050Z 33016G22KT 09/M05 A3026 RMK A01 T00861046  RH  039%=      5-min Rain = 0
KPFS 192055Z 34016G22KT 09/M05 A3026 RMK A01 T00861045  RH  039%=      5-min Rain = 0
KPFS 192100Z 34016G23KT 09/M04 A3026 RMK A01 T00891044  RH  039%=      5-min Rain = 0
KPFS 192105Z 33017G25KT 09/M05 A3026 RMK A01 T00881046  RH  039%=      5-min Rain = 0
KPFS 192110Z 34015G22KT 09/M05 A3026 RMK A01 T00901045  RH  038%=      5-min Rain = 0
KPFS 192115Z 35015G23KT 09/M04 A3026 RMK A01 T00921044  RH  038%=      5-min Rain = 0
KPFS 192120Z 34017G23KT 09/M04 A3026 RMK A01 T00921044  RH  038%=      5-min Rain = 0
KPFS 192125Z 34018KT 09/M05 A3026 RMK A01 T00901047  RH  038%=      5-min Rain = 0
KPFS 192130Z 34018G23KT 09/M05 A3026 RMK A01 T00911045  RH  038%=      5-min Rain = 0
KPFS 192135Z 34016G22KT 09/M05 A3026 RMK A01 T00911045  RH  038%=      5-min Rain = 0
KPFS 192140Z 34018G25KT 09/M05 A3026 RMK A01 T00911045  RH  038%=      5-min Rain = 0
KPFS 192145Z 35017G23KT 09/M04 A3026 RMK A01 T00921044  RH  038%=      5-min Rain = 0
KPFS 192150Z 34016G21KT 09/M04 A3026 RMK A01 T00921044  RH  038%=      5-min Rain = 0
KPFS 192155Z 33017G22KT 09/M05 A3026 RMK A01 T00931045  RH  038%=      5-min Rain = 0
KPFS 192200Z 34016G21KT 09/M05 A3027 RMK A01 T00921045  RH  038%=      5-min Rain = 0
KPFS 192205Z 34015G21KT 09/M04 A3026 RMK A01 T00941043  RH  038%=      5-min Rain = 0
KPFS 192210Z 33016G21KT 09/M05 A3026 RMK A01 T00931045  RH  038%=      5-min Rain = 0
KPFS 192215Z 33016G21KT 09/M04 A3026 RMK A01 T00931043  RH  038%=      5-min Rain = 0
KPFS 192220Z 34015KT 09/M04 A3026 RMK A01 T00931042  RH  038%=      5-min Rain = 0
KPFS 192225Z 34014G20KT 09/M04 A3026 RMK A01 T00921044  RH  038%=      5-min Rain = 0
KPFS 192230Z 34015G23KT 09/M04 A3026 RMK A01 T00921044  RH  038%=      5-min Rain = 0
KPFS 192235Z 34016G21KT 09/M05 A3026 RMK A01 T00911045  RH  038%=      5-min Rain = 0
KPFS 192240Z 34014G20KT 09/M04 A3026 RMK A01 T00911044  RH  038%=      5-min Rain = 0
KPFS 192245Z 34015G21KT 09/M04 A3026 RMK A01 T00901044  RH  039%=      5-min Rain = 0
KPFS 192250Z 34016KT 09/M04 A3026 RMK A01 T00881043  RH  039%=      5-min Rain = 0
KPFS 192255Z 34013G19KT 09/M04 A3027 RMK A01 T00891042  RH  040%=      5-min Rain = 0
KPFS 192300Z 34013G18KT 09/M04 A3027 RMK A01 T00881042  RH  040%=      5-min Rain = 0
KPFS 192305Z 35013G18KT 09/M04 A3027 RMK A01 T00881041  RH  040%=      5-min Rain = 0
KPFS 192310Z 34012KT 09/M04 A3027 RMK A01 T00871039  RH  041%=      5-min Rain = 0
KPFS 192315Z 34011KT 09/M04 A3027 RMK A01 T00871040  RH  041%=      5-min Rain = 0
KPFS 192320Z 35011KT 09/M04 A3027 RMK A01 T00861041  RH  041%=      5-min Rain = 0
KPFS 192325Z 35009KT 09/M04 A3027 RMK A01 T00851039  RH  042%=      5-min Rain = 0
KPFS 192330Z 35008KT 08/M04 A3027 RMK A01 T00831039  RH  042%=      5-min Rain = 0
KPFS 192335Z 35007KT 08/M04 A3027 RMK A01 T00821039  RH  043%=      5-min Rain = 0
KPFS 192340Z 35008KT 08/M04 A3027 RMK A01 T00801038  RH  043%=      5-min Rain = 0
KPFS 192345Z 36010KT 08/M04 A3026 RMK A01 T00771038  RH  044%=      5-min Rain = 0
KPFS 192350Z 36009KT 08/M04 A3026 RMK A01 T00751038  RH  045%=      5-min Rain = 0
KPFS 192355Z 35009KT 07/M04 A3026 RMK A01 T00721038  RH  046%=      5-min Rain = 0
KPFS 200000Z 34008KT 07/M04 A3026 RMK A01 T00711038  RH  046%=      5-min Rain = 0
KPFS 200005Z 35008KT 07/M04 A3027 RMK A01 T00671038  RH  047%=      5-min Rain = 0
KPFS 200010Z 36007KT 06/M04 A3027 RMK A01 T00641038  RH  048%=      5-min Rain = 0
KPFS 200015Z 00006KT 06/M04 A3027 RMK A01 T00591038  RH  050%=      5-min Rain = 0
KPFS 200020Z 01006KT 06/M04 A3027 RMK A01 T00561038  RH  051%=      5-min Rain = 0
KPFS 200025Z 02006KT 05/M04 A3027 RMK A01 T00541038  RH  052%=      5-min Rain = 0
KPFS 200030Z 04006KT 05/M04 A3028 RMK A01 T00501039  RH  053%=      5-min Rain = 0
KPFS 200035Z 03006KT 05/M04 A3028 RMK A01 T00491039  RH  053%=      5-min Rain = 0
KPFS 200040Z 03006KT 05/M04 A3028 RMK A01 T00491040  RH  053%=      5-min Rain = 0
KPFS 200045Z 02007KT 05/M04 A3028 RMK A01 T00491039  RH  053%=      5-min Rain = 0
KPFS 200050Z 02007KT 05/M04 A3028 RMK A01 T00481040  RH  053%=      5-min Rain = 0
KPFS 200055Z 01007KT 05/M04 A3028 RMK A01 T00471040  RH  054%=      5-min Rain = 0
KPFS 200100Z 01008KT 05/M04 A3028 RMK A01 T00461039  RH  054%=      5-min Rain = 0
KPFS 200105Z 01009KT 05/M04 A3027 RMK A01 T00451039  RH  055%=      5-min Rain = 0
KPFS 200110Z 00008KT 04/M04 A3028 RMK A01 T00421039  RH  056%=      5-min Rain = 0
KPFS 200115Z 01007KT 04/M04 A3028 RMK A01 T00371039  RH  058%=      5-min Rain = 0
KPFS 200120Z 01008KT 04/M04 A3028 RMK A01 T00371038  RH  058%=      5-min Rain = 0
KPFS 200125Z 02008KT 04/M04 A3029 RMK A01 T00361039  RH  058%=      5-min Rain = 0
KPFS 200130Z 02007KT 03/M04 A3029 RMK A01 T00341039  RH  059%=      5-min Rain = 0
KPFS 200135Z 02007KT 03/M04 A303 RMK A01 T00341038  RH  059%=      5-min Rain = 0
KPFS 200140Z 02007KT 03/M04 A303 RMK A01 T00331039  RH  059%=      5-min Rain = 0
KPFS 200145Z 01007KT 03/M04 A3029 RMK A01 T00321039  RH  060%=      5-min Rain = 0
KPFS 200150Z 01008KT 03/M04 A303 RMK A01 T00301039  RH  061%=      5-min Rain = 0
KPFS 200155Z 01008KT 03/M04 A3029 RMK A01 T00301038  RH  061%=      5-min Rain = 0
KPFS 200200Z 02007KT 03/M04 A3029 RMK A01 T00281039  RH  062%=      5-min Rain = 0
KPFS 200205Z 05006KT 02/M04 A3029 RMK A01 T00241040  RH  063%=      5-min Rain = 0
KPFS 200210Z 06006KT 03/M04 A303 RMK A01 T00251039  RH  063%=      5-min Rain = 0
KPFS 200215Z 06007KT 03/M04 A3029 RMK A01 T00261040  RH  062%=      5-min Rain = 0
KPFS 200220Z 06007KT 02/M04 A3029 RMK A01 T00241043  RH  062%=      5-min Rain = 0
KPFS 200225Z 04004KT 02/M05 A3029 RMK A01 T00231045  RH  061%=      5-min Rain = 0
KPFS 200230Z 05004KT 02/M05 A3029 RMK A01 T00191047  RH  062%=      5-min Rain = 0
KPFS 200235Z 06005KT 02/M05 A3029 RMK A01 T00161049  RH  062%=      5-min Rain = 0
KPFS 200240Z 07007KT 02/M05 A3029 RMK A01 T00151050  RH  062%=      5-min Rain = 0
KPFS 200245Z 06007KT 02/M05 A3029 RMK A01 T00161053  RH  060%=      5-min Rain = 0
KPFS 200250Z 05009KT 02/M06 A3029 RMK A01 T00181058  RH  057%=      5-min Rain = 0
KPFS 200255Z 05006KT 02/M06 A303 RMK A01 T00161060  RH  057%=      5-min Rain = 0
KPFS 200300Z 04003KT 01/M06 A303 RMK A01 T00141061  RH  057%=      5-min Rain = 0
KPFS 200305Z 04003KT 01/M06 A303 RMK A01 T00101061  RH  059%=      5-min Rain = 0
KPFS 200310Z 04004KT 01/M06 A3031 RMK A01 T00071061  RH  060%=      5-min Rain = 0
KPFS 200315Z 03002KT 00/M06 A3031 RMK A01 T00041061  RH  062%=      5-min Rain = 0
KPFS 200320Z 36002KT 00/M06 A3031 RMK A01 T00021059  RH  064%=      5-min Rain = 0
KPFS 200325Z 01002KT M00/M06 A3031 RMK A01 T10021058  RH  066%=      5-min Rain = 0
KPFS 200330Z 02002KT M00/M06 A3031 RMK A01 T10031057  RH  067%=      5-min Rain = 0
KPFS 200335Z 03001KT M01/M06 A303 RMK A01 T10051057  RH  068%=      5-min Rain = 0
KPFS 200340Z 04002KT M01/M06 A303 RMK A01 T10061058  RH  068%=      5-min Rain = 0
KPFS 200345Z 04000KT M01/M06 A3031 RMK A01 T10051057  RH  068%=      5-min Rain = 0
KPFS 200350Z 02002KT M01/M05 A3031 RMK A01 T10071054  RH  071%=      5-min Rain = 0
KPFS 200355Z 03004KT M00/M06 A3031 RMK A01 T10041060  RH  066%=      5-min Rain = 0
KPFS 200400Z 03001KT M01/M07 A3031 RMK A01 T10051065  RH  064%=      5-min Rain = 0
KPFS 200405Z 19003KT M01/M06 A3031 RMK A01 T10111058  RH  071%=      5-min Rain = 0
KPFS 200410Z 16001KT M01/M05 A3031 RMK A01 T10131054  RH  073%=      5-min Rain = 0
KPFS 200415Z 18002KT M01/M05 A3031 RMK A01 T10111054  RH  072%=      5-min Rain = 0
KPFS 200420Z 18002KT M01/M06 A3031 RMK A01 T10071056  RH  069%=      5-min Rain = 0
KPFS 200425Z 08002KT M00/M06 A3031 RMK A01 T10031061  RH  065%=      5-min Rain = 0
KPFS 200430Z 06004KT 00/M07 A3031 RMK A01 T00011069  RH  059%=      5-min Rain = 0
KPFS 200435Z 06003KT M00/M07 A3031 RMK A01 T10011072  RH  059%=      5-min Rain = 0
KPFS 200440Z 06005KT M00/M07 A3031 RMK A01 T10011074  RH  058%=      5-min Rain = 0
KPFS 200445Z 06006KT 00/07 A3031 RMK A01 T00-00-74  RH  057%=      5-min Rain = 0
KPFS 200450Z 05004KT M00/M08 A3032 RMK A01 T10011075  RH  057%=      5-min Rain = 0
KPFS 200455Z 07003KT M00/M08 A3032 RMK A01 T10011076  RH  057%=      5-min Rain = 0
KPFS 200500Z 12003KT M01/M08 A3032 RMK A01 T10071075  RH  060%=      5-min Rain = 0
KPFS 200505Z 10005KT M01/M07 A3031 RMK A01 T10131072  RH  065%=      5-min Rain = 0
KPFS 200510Z 09005KT M01/M07 A3031 RMK A01 T10061074  RH  060%=      5-min Rain = 0
KPFS 200515Z 08005KT M00/M08 A3032 RMK A01 T10031076  RH  058%=      5-min Rain = 0
KPFS 200520Z 10005KT M00/M08 A3032 RMK A01 T10021077  RH  057%=      5-min Rain = 0
KPFS 200525Z 13003KT M01/M08 A3032 RMK A01 T10081078  RH  059%=      5-min Rain = 0
KPFS 200530Z 16003KT M02/M08 A3033 RMK A01 T10171075  RH  064%=      5-min Rain = 0
KPFS 200535Z 16003KT M02/M07 A3032 RMK A01 T10211074  RH  067%=      5-min Rain = 0
KPFS 200540Z 14003KT M02/M07 A3033 RMK A01 T10191072  RH  067%=      5-min Rain = 0
KPFS 200545Z 14003KT M02/M07 A3033 RMK A01 T10151071  RH  066%=      5-min Rain = 0
KPFS 200550Z 14002KT M01/M07 A3034 RMK A01 T10141072  RH  064%=      5-min Rain = 0
KPFS 200555Z 11002KT M01/M07 A3034 RMK A01 T10141073  RH  064%=      5-min Rain = 0

Page generated in 0.0088 seconds.